Time;durP1;ratioP1;P1;durP2;ratioP2;P2;SDS_P1;SDS_P2;PMS_P1;PMS_P2;Temp;Humidity;BMP_temperature;BMP_pressure;BME280_temperature;BME280_humidity;BME280_pressure;Samples;Min_cycle;Max_cycle;Signal;HPM_P1;HPM_P2
2024/01/23 00:01:47;;;;;;;15.17;1.80;;;;;;;13.23;49.50;101714.97;5051416;28;20021;-74
2024/01/23 00:04:12;;;;;;;19.33;1.63;;;;;;;14.13;47.95;101715.03;5053221;28;20066;-75
2024/01/23 00:06:38;;;;;;;6.67;1.00;;;;;;;14.16;48.12;101724.66;5051435;28;20025;-75
2024/01/23 00:09:03;;;;;;;12.13;1.50;;;;;;;14.25;47.04;101740.34;5051320;28;20047;-75
2024/01/23 00:11:32;;;;;;;14.33;2.53;;;;;;;14.32;47.74;101742.00;5051482;28;20017;-74
2024/01/23 00:13:57;;;;;;;10.97;2.50;;;;;;;13.98;48.19;101742.34;5048114;28;20057;-75
2024/01/23 00:16:22;;;;;;;26.13;2.13;;;;;;;14.69;46.26;101748.66;5031092;28;20060;-75
2024/01/23 00:18:48;;;;;;;11.23;1.60;;;;;;;15.22;45.83;101751.41;5050649;28;20099;-75
2024/01/23 00:21:13;;;;;;;11.03;1.47;;;;;;;14.36;47.14;101758.66;5052865;28;20432;-75
2024/01/23 00:23:39;;;;;;;7.83;2.37;;;;;;;14.94;46.06;101757.06;5052110;28;20107;-75
2024/01/23 00:26:04;;;;;;;8.83;1.63;;;;;;;13.83;47.58;101746.00;5050980;28;20071;-75
2024/01/23 00:28:29;;;;;;;14.20;1.93;;;;;;;14.38;46.39;101755.13;5051054;28;20025;-75
2024/01/23 00:30:55;;;;;;;14.30;1.80;;;;;;;13.82;47.03;101757.41;5052026;28;20481;-75
2024/01/23 00:33:20;;;;;;;9.10;1.57;;;;;;;13.67;46.40;101768.94;5051024;28;20029;-75
2024/01/23 00:35:45;;;;;;;14.93;2.40;;;;;;;14.70;43.92;101760.88;5051864;28;20029;-75
2024/01/23 00:38:11;;;;;;;7.00;1.40;;;;;;;14.15;45.00;101783.38;5050276;28;20075;-75
2024/01/23 00:40:36;;;;;;;5.00;1.60;;;;;;;14.88;43.00;101786.13;5051619;28;20028;-75
2024/01/23 00:43:02;;;;;;;10.50;1.17;;;;;;;14.24;43.74;101792.03;5047417;28;20022;-75
2024/01/23 00:45:27;;;;;;;10.10;1.53;;;;;;;14.52;42.75;101796.16;5046795;28;20431;-75
2024/01/23 00:47:52;;;;;;;10.87;1.63;;;;;;;14.18;43.53;101813.16;5041376;28;20029;-75
2024/01/23 00:50:18;;;;;;;11.10;1.07;;;;;;;14.46;42.96;101818.13;5049402;28;20037;-75
2024/01/23 00:52:43;;;;;;;13.77;1.70;;;;;;;15.12;41.68;101818.28;5049511;28;20032;-75
2024/01/23 00:55:09;;;;;;;6.97;1.53;;;;;;;14.36;42.86;101809.47;5050874;28;20448;-75
2024/01/23 00:57:34;;;;;;;13.17;1.73;;;;;;;13.78;43.82;101812.63;5049667;28;20020;-75
2024/01/23 01:00:05;;;;;;;10.43;1.53;;;;;;;14.10;43.65;101822.00;5050700;28;20027;-75
2024/01/23 01:02:30;;;;;;;11.80;1.27;;;;;;;14.46;43.41;101819.91;5051332;28;20025;-75
2024/01/23 01:04:56;;;;;;;13.03;1.93;;;;;;;14.33;43.88;101817.41;5051686;28;20170;-75
2024/01/23 01:07:21;;;;;;;6.00;1.40;;;;;;;14.12;43.90;101838.63;5050606;28;20033;-75
2024/01/23 01:09:47;;;;;;;9.27;0.97;;;;;;;14.67;43.13;101848.66;5051490;28;20017;-75
2024/01/23 01:12:12;;;;;;;13.57;1.77;;;;;;;14.19;43.66;101842.94;5050264;28;20052;-75
2024/01/23 01:14:37;;;;;;;15.20;3.37;;;;;;;14.49;43.58;101838.28;5049548;28;20025;-74
2024/01/23 01:17:04;;;;;;;6.03;1.43;;;;;;;15.06;42.62;101854.31;5051684;28;20075;-75
2024/01/23 01:19:29;;;;;;;13.53;1.67;;;;;;;14.07;45.02;101857.94;5049422;28;20029;-75
2024/01/23 01:21:55;;;;;;;12.13;2.03;;;;;;;14.13;45.49;101866.69;5051519;28;20025;-75
2024/01/23 01:24:20;;;;;;;12.37;1.63;;;;;;;13.55;46.03;101861.81;5049984;28;20142;-75
2024/01/23 01:26:46;;;;;;;19.10;2.40;;;;;;;13.91;45.55;101866.84;5048662;28;20021;-74
2024/01/23 01:29:11;;;;;;;13.43;2.13;;;;;;;14.25;44.97;101871.81;5051433;28;20090;-74
2024/01/23 01:31:36;;;;;;;9.97;1.67;;;;;;;14.01;45.57;101862.38;5049811;28;20050;-75
2024/01/23 01:34:02;;;;;;;6.47;1.50;;;;;;;15.29;43.66;101855.81;5049861;28;20013;-76
2024/01/23 01:36:32;;;;;;;10.80;1.77;;;;;;;13.54;47.44;101859.19;5050826;28;20025;-75
2024/01/23 01:39:00;;;;;;;20.87;2.37;;;;;;;13.65;47.04;101869.66;5046513;28;20463;-75
2024/01/23 01:41:25;;;;;;;15.83;2.27;;;;;;;14.32;45.82;101868.25;5029469;28;20047;-75
2024/01/23 01:43:51;;;;;;;14.40;1.57;;;;;;;14.18;46.29;101864.88;5040516;28;20466;-74
2024/01/23 01:46:19;;;;;;;10.07;2.07;;;;;;;14.92;44.99;101872.94;5050060;28;20033;-75
2024/01/23 01:48:46;;;;;;;4.70;0.97;;;;;;;13.26;48.34;101884.69;5048791;28;20052;-75
2024/01/23 01:51:12;;;;;;;11.80;1.83;;;;;;;14.30;46.38;101883.19;5051121;28;20108;-74
2024/01/23 01:53:39;;;;;;;8.40;1.23;;;;;;;13.66;47.19;101888.03;5050210;28;20112;-75
2024/01/23 01:56:06;;;;;;;7.00;1.37;;;;;;;13.62;47.87;101895.94;5051310;28;20063;-75
2024/01/23 01:58:32;;;;;;;7.27;1.20;;;;;;;13.25;49.16;101896.97;5049522;28;20096;-74
2024/01/23 02:01:00;;;;;;;17.37;1.80;;;;;;;13.70;48.19;101888.88;5049123;28;20127;-75
2024/01/23 02:03:26;;;;;;;13.73;2.43;;;;;;;13.20;48.99;101903.97;5049300;28;20083;-74
2024/01/23 02:05:52;;;;;;;8.07;1.30;;;;;;;13.80;48.02;101900.22;5049062;28;20108;-74
2024/01/23 02:08:18;;;;;;;8.27;2.23;;;;;;;12.75;49.75;101924.22;5050735;28;20108;-75
2024/01/23 02:10:44;;;;;;;9.83;1.70;;;;;;;13.91;47.56;101929.91;5048900;28;20029;-74
2024/01/23 02:13:10;;;;;;;10.53;1.27;;;;;;;13.50;48.37;101933.66;5049223;28;20039;-74
2024/01/23 02:15:35;;;;;;;7.27;1.00;;;;;;;13.98;47.12;101936.88;5050502;28;20117;-75
2024/01/23 02:18:01;;;;;;;13.53;1.60;;;;;;;13.83;46.90;101937.84;5049599;28;20381;-75
2024/01/23 02:20:27;;;;;;;7.17;1.30;;;;;;;14.00;46.91;101940.38;5050897;28;20036;-74
2024/01/23 02:22:53;;;;;;;14.57;2.33;;;;;;;13.79;46.74;101951.88;5048726;28;20021;-74
2024/01/23 02:25:18;;;;;;;18.20;2.40;;;;;;;14.60;45.55;101962.69;5050546;28;20021;-74
2024/01/23 02:27:44;;;;;;;12.47;2.00;;;;;;;14.17;46.50;101963.91;5049789;28;20047;-74
2024/01/23 02:30:10;;;;;;;15.33;2.10;;;;;;;14.07;47.13;101978.88;5050401;28;20013;-75
2024/01/23 02:32:36;;;;;;;17.63;1.53;;;;;;;14.64;45.21;101987.25;5048873;28;20036;-74
2024/01/23 02:35:01;;;;;;;12.20;2.93;;;;;;;14.00;47.15;102003.47;5050841;28;20025;-74
2024/01/23 02:37:26;;;;;;;7.40;1.10;;;;;;;13.74;47.14;101999.22;5052448;28;20029;-75
2024/01/23 02:39:53;;;;;;;13.57;1.40;;;;;;;13.23;47.99;101998.50;5048971;28;20500;-75
2024/01/23 02:42:18;;;;;;;17.97;1.90;;;;;;;13.37;47.65;101999.34;5032717;28;20369;-75
2024/01/23 02:44:45;;;;;;;9.43;1.70;;;;;;;13.60;47.17;101993.16;5033238;28;20025;-75
2024/01/23 02:47:12;;;;;;;8.10;1.37;;;;;;;13.94;46.44;102003.47;5043438;28;20023;-75
2024/01/23 02:49:37;;;;;;;12.93;2.13;;;;;;;14.29;45.47;101999.78;5052368;28;20041;-74
2024/01/23 02:52:03;;;;;;;16.50;2.07;;;;;;;14.20;45.77;102005.09;5052406;28;20487;-75
2024/01/23 02:54:32;;;;;;;20.40;2.20;;;;;;;14.28;44.81;102019.06;5052877;28;20096;-74
2024/01/23 02:56:57;;;;;;;23.13;3.00;;;;;;;13.68;46.02;102012.38;5036635;28;20032;-76
2024/01/23 02:59:23;;;;;;;13.03;1.70;;;;;;;13.83;46.07;102015.81;5049689;28;20389;-75
2024/01/23 03:01:48;;;;;;;10.80;1.70;;;;;;;13.23;46.57;102027.38;5057977;28;20032;-75
2024/01/23 03:04:13;;;;;;;10.33;1.60;;;;;;;13.35;47.15;102035.25;5032497;28;20028;-75
2024/01/23 03:06:39;;;;;;;14.90;2.10;;;;;;;13.52;45.67;102036.97;5043532;28;20026;-75
2024/01/23 03:09:06;;;;;;;24.07;2.40;;;;;;;13.65;45.49;102043.03;5052429;28;20024;-75
2024/01/23 03:11:31;;;;;;;9.87;1.60;;;;;;;14.38;44.88;102047.06;5052129;28;20037;-75
2024/01/23 03:13:57;;;;;;;7.47;1.60;;;;;;;13.53;46.00;102054.44;5052129;28;20029;-75
2024/01/23 03:16:22;;;;;;;10.30;1.57;;;;;;;13.42;46.77;102064.97;5052160;28;20757;-75
2024/01/23 03:18:48;;;;;;;11.60;1.30;;;;;;;13.07;46.34;102061.50;5050677;28;20025;-74
2024/01/23 03:21:14;;;;;;;13.23;2.40;;;;;;;12.67;47.52;102071.16;5053657;28;20531;-75
2024/01/23 03:23:39;;;;;;;16.60;1.63;;;;;;;13.81;45.46;102064.88;5051929;28;20499;-74
2024/01/23 03:26:05;;;;;;;9.73;1.97;;;;;;;12.78;47.58;102058.03;5053090;28;20111;-74
2024/01/23 03:28:30;;;;;;;10.80;1.13;;;;;;;12.89;47.21;102054.53;5053208;28;20568;-73
2024/01/23 03:30:55;;;;;;;8.40;1.03;;;;;;;12.87;47.20;102068.50;5053282;28;20036;-74
2024/01/23 03:33:21;;;;;;;12.33;1.77;;;;;;;12.89;47.69;102077.28;5051992;28;20429;-74
2024/01/23 03:35:46;;;;;;;7.10;1.70;;;;;;;13.76;45.38;102078.03;5047714;28;20029;-75
2024/01/23 03:38:13;;;;;;;7.50;2.10;;;;;;;13.52;45.80;102094.75;5032031;28;20037;-76
2024/01/23 03:40:39;;;;;;;17.67;2.90;;;;;;;13.34;45.84;102095.59;5047501;28;20044;-76
2024/01/23 03:43:04;;;;;;;19.27;2.20;;;;;;;13.53;45.68;102106.97;5051791;28;20025;-74
2024/01/23 03:45:30;;;;;;;18.37;1.87;;;;;;;14.04;45.07;102120.88;5050950;28;20473;-73
2024/01/23 03:47:55;;;;;;;15.87;2.40;;;;;;;13.82;44.84;102125.31;5051795;28;20028;-74
2024/01/23 03:50:20;;;;;;;5.90;0.80;;;;;;;12.50;47.84;102139.28;5051803;28;20067;-74
2024/01/23 03:52:46;;;;;;;15.87;2.37;;;;;;;13.64;45.63;102126.25;5051506;28;20032;-75
2024/01/23 03:55:12;;;;;;;10.30;1.70;;;;;;;13.51;45.89;102121.91;5048008;28;20037;-74
2024/01/23 03:57:37;;;;;;;12.63;2.30;;;;;;;14.07;44.46;102141.88;5049702;28;20040;-76
2024/01/23 04:00:04;;;;;;;19.50;2.07;;;;;;;13.42;45.78;102135.03;5051908;28;20032;-74
2024/01/23 04:02:31;;;;;;;12.00;1.20;;;;;;;13.89;44.73;102136.69;5052260;28;20029;-73
2024/01/23 04:04:57;;;;;;;4.13;1.20;;;;;;;12.96;46.45;102147.25;5051202;28;20063;-74
2024/01/23 04:07:22;;;;;;;10.60;1.30;;;;;;;13.23;45.80;102146.38;5050967;28;20083;-74
2024/01/23 04:09:49;;;;;;;10.00;2.47;;;;;;;14.36;43.51;102147.91;5051165;28;20029;-74
2024/01/23 04:12:14;;;;;;;20.30;1.87;;;;;;;13.67;44.94;102157.75;5051536;28;20025;-74
2024/01/23 04:14:40;;;;;;;16.17;1.53;;;;;;;13.64;44.63;102154.25;5050262;28;20179;-74
2024/01/23 04:17:06;;;;;;;9.73;1.27;;;;;;;14.00;44.33;102165.56;5047451;28;20102;-74
2024/01/23 04:19:31;;;;;;;12.63;3.13;;;;;;;13.95;44.73;102162.09;5030938;28;20509;-73
2024/01/23 04:21:57;;;;;;;7.83;2.50;;;;;;;13.40;45.63;102163.94;5042147;28;20037;-74
2024/01/23 04:24:22;;;;;;;14.70;1.83;;;;;;;12.73;47.32;102182.22;5052353;28;20037;-74
2024/01/23 04:26:48;;;;;;;15.77;2.27;;;;;;;12.78;47.22;102178.72;5050786;28;20193;-74
2024/01/23 04:29:14;;;;;;;11.53;1.03;;;;;;;13.58;45.58;102189.28;5052168;28;20093;-73
2024/01/23 04:31:39;;;;;;;12.77;2.67;;;;;;;12.91;46.54;102190.97;5051891;28;20021;-73
2024/01/23 04:34:05;;;;;;;8.93;1.77;;;;;;;13.76;44.97;102182.28;5050880;28;20090;-74
2024/01/23 04:36:30;;;;;;;13.13;1.33;;;;;;;13.44;46.37;102212.94;5050012;28;20155;-74
2024/01/23 04:38:56;;;;;;;8.20;1.40;;;;;;;13.02;46.77;102214.63;5052101;28;20029;-74
2024/01/23 04:41:22;;;;;;;7.17;1.40;;;;;;;13.35;46.72;102207.66;5050979;28;20025;-75
2024/01/23 04:43:48;;;;;;;9.73;1.07;;;;;;;13.44;46.58;102212.09;5046486;28;20017;-74
2024/01/23 04:46:13;;;;;;;20.03;1.30;;;;;;;13.49;46.18;102215.56;5032112;28;20397;-73
2024/01/23 04:48:39;;;;;;;9.67;1.20;;;;;;;13.53;46.63;102223.47;5030344;28;20140;-74
2024/01/23 04:51:04;;;;;;;10.70;1.30;;;;;;;12.95;47.43;102234.72;5031633;28;20032;-74
2024/01/23 04:53:32;;;;;;;9.93;1.77;;;;;;;12.59;47.28;102246.84;5033369;28;20033;-74
2024/01/23 04:55:58;;;;;;;13.40;1.50;;;;;;;13.37;46.45;102243.59;5050544;28;20029;-74
2024/01/23 04:58:23;;;;;;;9.37;1.67;;;;;;;14.24;45.01;102238.22;5050489;28;20076;-74
2024/01/23 05:00:49;;;;;;;16.10;1.97;;;;;;;13.68;45.88;102243.59;5051404;28;20404;-74
2024/01/23 05:03:14;;;;;;;20.13;1.40;;;;;;;13.84;45.60;102254.97;5051930;28;20111;-74
2024/01/23 05:05:39;;;;;;;9.47;1.50;;;;;;;12.82;47.44;102253.97;5050910;28;20104;-74
2024/01/23 05:08:05;;;;;;;11.00;1.13;;;;;;;13.28;47.03;102258.41;5051949;28;20037;-73
2024/01/23 05:10:32;;;;;;;5.83;1.30;;;;;;;14.28;45.09;102255.75;5051275;28;20025;-74
2024/01/23 05:12:57;;;;;;;10.03;1.40;;;;;;;14.06;45.70;102245.28;5050265;28;20040;-75
2024/01/23 05:15:22;;;;;;;7.80;0.93;;;;;;;12.71;48.33;102257.41;5051854;28;20033;-75
2024/01/23 05:17:48;;;;;;;7.83;1.20;;;;;;;13.13;47.24;102260.13;5046098;28;20039;-75
2024/01/23 05:20:14;;;;;;;18.03;2.03;;;;;;;14.14;45.12;102249.66;5032116;28;20025;-76
2024/01/23 05:22:39;;;;;;;15.67;2.90;;;;;;;13.98;45.25;102262.81;5030023;28;20032;-75
2024/01/23 05:25:05;;;;;;;20.83;2.07;;;;;;;14.66;43.79;102252.16;5044214;28;20033;-75
2024/01/23 05:27:33;;;;;;;24.87;2.50;;;;;;;13.68;46.17;102266.34;5050299;28;20032;-75
2024/01/23 05:29:58;;;;;;;14.87;3.27;;;;;;;13.74;45.64;102284.75;5049697;28;20542;-76
2024/01/23 05:32:24;;;;;;;7.57;1.93;;;;;;;13.40;46.85;102301.34;5045800;28;20029;-75
2024/01/23 05:34:49;;;;;;;10.20;1.83;;;;;;;13.85;45.42;102303.16;5029276;28;20021;-75
2024/01/23 05:37:15;;;;;;;7.07;1.60;;;;;;;13.26;46.60;102313.56;5042771;28;20060;-76
2024/01/23 05:39:40;;;;;;;8.77;1.00;;;;;;;13.26;46.70;102324.06;5049404;28;20432;-75
2024/01/23 05:42:06;;;;;;;9.50;1.67;;;;;;;13.07;47.17;102321.38;5049684;28;20025;-76
2024/01/23 05:44:33;;;;;;;10.73;1.53;;;;;;;14.34;45.20;102324.13;5050180;28;20035;-75
2024/01/23 05:46:58;;;;;;;17.17;1.90;;;;;;;14.28;44.49;102323.28;5048916;28;20476;-75
2024/01/23 05:49:24;;;;;;;12.10;1.47;;;;;;;14.64;44.29;102322.31;5049412;28;20041;-75
2024/01/23 05:51:49;;;;;;;18.87;1.83;;;;;;;14.13;45.16;102329.41;5049126;28;20119;-76
2024/01/23 05:54:15;;;;;;;9.97;1.60;;;;;;;13.84;46.24;102338.19;5050194;28;20556;-76
2024/01/23 05:56:40;;;;;;;18.00;2.17;;;;;;;13.47;46.50;102338.16;5050025;28;20559;-75
2024/01/23 05:59:06;;;;;;;18.53;3.10;;;;;;;13.76;45.98;102340.81;5049082;28;20469;-76
2024/01/23 06:01:32;;;;;;;10.20;2.10;;;;;;;13.83;45.94;102360.09;5048988;28;20040;-75
2024/01/23 06:03:57;;;;;;;9.87;1.17;;;;;;;13.70;45.90;102354.81;5045735;28;20036;-75
2024/01/23 06:06:23;;;;;;;28.70;2.30;;;;;;;13.96;45.66;102353.97;5049188;28;20041;-75
2024/01/23 06:08:48;;;;;;;11.77;2.03;;;;;;;14.11;45.32;102344.31;5048682;28;20143;-75
2024/01/23 06:11:14;;;;;;;14.77;2.27;;;;;;;13.67;46.42;102357.44;5049493;28;20025;-75
2024/01/23 06:13:39;;;;;;;12.23;2.03;;;;;;;14.24;44.69;102359.22;5053838;28;20128;-75
2024/01/23 06:16:05;;;;;;;12.77;1.60;;;;;;;14.49;45.01;102364.44;5053419;28;20056;-76
2024/01/23 06:18:30;;;;;;;15.13;1.37;;;;;;;14.14;45.23;102363.59;5052066;28;20424;-76
2024/01/23 06:20:57;;;;;;;9.07;1.17;;;;;;;14.02;45.03;102376.75;5053362;28;20043;-75
2024/01/23 06:23:24;;;;;;;19.40;1.50;;;;;;;14.12;45.15;102369.72;5053979;28;20585;-75
2024/01/23 06:25:50;;;;;;;10.10;1.20;;;;;;;14.12;45.34;102386.38;5051984;28;20129;-76
2024/01/23 06:28:15;;;;;;;14.03;2.30;;;;;;;13.47;46.79;102388.94;5050744;28;20425;-75
2024/01/23 06:30:40;;;;;;;11.60;1.50;;;;;;;13.74;46.15;102388.13;5053573;28;20553;-75
2024/01/23 06:33:06;;;;;;;19.17;1.60;;;;;;;13.39;46.95;102388.94;5050878;28;20029;-75
2024/01/23 06:35:31;;;;;;;11.30;1.70;;;;;;;14.11;45.57;102394.25;5051825;28;20040;-75
2024/01/23 06:37:57;;;;;;;16.63;1.77;;;;;;;13.38;47.31;102405.53;5052496;28;20056;-75
2024/01/23 06:40:23;;;;;;;11.33;1.20;;;;;;;13.49;46.79;102409.94;5051133;28;20171;-75
2024/01/23 06:42:48;;;;;;;11.10;2.03;;;;;;;14.13;45.00;102413.56;5051286;28;20152;-75
2024/01/23 06:45:14;;;;;;;18.50;2.10;;;;;;;14.11;45.02;102404.78;5052276;28;20033;-74
2024/01/23 06:47:39;;;;;;;13.20;1.53;;;;;;;14.21;44.88;102406.56;5052136;28;20033;-75
2024/01/23 06:50:05;;;;;;;13.90;2.27;;;;;;;14.20;44.68;102407.41;5051604;28;20049;-74
2024/01/23 06:52:31;;;;;;;10.10;1.57;;;;;;;13.76;45.96;102403.00;5050633;28;20052;-74
2024/01/23 06:54:56;;;;;;;13.23;1.60;;;;;;;13.66;46.43;102408.25;5053055;28;20036;-74
2024/01/23 06:57:22;;;;;;;9.03;2.13;;;;;;;13.59;45.94;102406.47;5051572;28;20438;-75
2024/01/23 06:59:47;;;;;;;11.13;2.00;;;;;;;13.11;47.17;102402.78;5052888;28;20033;-74
2024/01/23 07:02:13;;;;;;;13.67;1.83;;;;;;;13.46;46.64;102404.69;5051868;28;20025;-74
2024/01/23 07:04:40;;;;;;;11.97;1.97;;;;;;;14.23;45.46;102415.31;5050772;28;20112;-74
2024/01/23 07:07:05;;;;;;;21.90;2.70;;;;;;;13.36;47.21;102424.78;5052065;28;20031;-74
2024/01/23 07:09:31;;;;;;;18.23;3.00;;;;;;;13.84;46.00;102410.03;5053006;28;20029;-74
2024/01/23 07:11:56;;;;;;;18.63;2.07;;;;;;;14.95;43.61;102406.47;5052649;28;20064;-74
2024/01/23 07:14:22;;;;;;;11.07;2.00;;;;;;;14.54;44.38;102410.03;5052006;28;20037;-74
2024/01/23 07:16:47;;;;;;;11.97;1.73;;;;;;;14.02;45.64;102422.31;5051699;28;20067;-74
2024/01/23 07:19:12;;;;;;;11.27;2.00;;;;;;;13.36;46.11;102419.53;5052494;28;20112;-74
2024/01/23 07:21:40;;;;;;;9.90;2.10;;;;;;;13.61;46.16;102423.09;5052814;28;20037;-74
2024/01/23 07:24:09;;;;;;;23.10;2.37;;;;;;;12.65;48.26;102417.41;5050749;28;20061;-74
2024/01/23 07:26:35;;;;;;;11.53;1.33;;;;;;;13.21;47.46;102409.81;5051346;28;20028;-74
2024/01/23 07:29:02;;;;;;;21.53;2.03;;;;;;;14.41;44.52;102417.94;5051775;28;20024;-75
2024/01/23 07:31:30;;;;;;;11.83;2.10;;;;;;;14.30;44.79;102414.44;5052360;28;20147;-75
2024/01/23 07:33:57;;;;;;;10.70;2.00;;;;;;;13.46;46.12;102409.94;5052722;28;20116;-74
2024/01/23 07:36:22;;;;;;;15.60;2.40;;;;;;;13.61;46.21;102409.97;5052700;28;20388;-75
2024/01/23 07:38:47;;;;;;;14.70;2.33;;;;;;;14.48;43.80;102408.28;5050427;28;20037;-75
2024/01/23 07:41:13;;;;;;;13.20;2.50;;;;;;;14.23;44.45;102410.03;5052824;28;20178;-75
2024/01/23 07:43:38;;;;;;;8.67;1.80;;;;;;;14.96;43.22;102424.00;5050991;28;20028;-75
2024/01/23 07:46:03;;;;;;;10.03;2.10;;;;;;;14.24;44.45;102438.09;5051898;28;20365;-75
2024/01/23 07:48:32;;;;;;;11.83;2.17;;;;;;;15.10;43.00;102442.41;5052157;28;20053;-74
2024/01/23 07:50:57;;;;;;;24.90;2.77;;;;;;;14.71;43.15;102447.75;5051182;28;20071;-75
2024/01/23 07:53:23;;;;;;;11.43;2.27;;;;;;;14.36;43.93;102463.53;5051951;28;20492;-75
2024/01/23 07:55:48;;;;;;;17.07;1.83;;;;;;;13.59;45.48;102464.28;5050743;28;20233;-75
2024/01/23 07:58:14;;;;;;;17.97;1.67;;;;;;;13.98;44.79;102477.53;5052358;28;20033;-75
2024/01/23 08:00:43;;;;;;;14.23;1.60;;;;;;;14.28;44.59;102476.69;5051311;28;20104;-75
2024/01/23 08:03:08;;;;;;;16.93;2.00;;;;;;;14.54;43.72;102483.72;5067517;28;20025;-75
2024/01/23 08:05:34;;;;;;;13.57;1.57;;;;;;;13.51;45.90;102497.53;5051864;28;20388;-74
2024/01/23 08:08:00;;;;;;;11.17;2.00;;;;;;;14.20;44.33;102496.84;5050111;28;20097;-75
2024/01/23 08:10:26;;;;;;;17.57;1.93;;;;;;;13.70;45.69;102507.22;5052279;28;20013;-75
2024/01/23 08:12:51;;;;;;;9.33;1.57;;;;;;;13.28;46.68;102514.00;5050506;28;20020;-75
2024/01/23 08:15:19;;;;;;;9.77;1.77;;;;;;;13.03;47.31;102532.22;5051342;28;20028;-75
2024/01/23 08:17:45;;;;;;;9.30;1.50;;;;;;;13.36;47.43;102530.72;5050424;28;20029;-75
2024/01/23 08:20:11;;;;;;;21.40;2.00;;;;;;;13.06;48.14;102545.41;5052413;28;20033;-75
2024/01/23 08:22:36;;;;;;;15.33;2.23;;;;;;;12.77;49.32;102539.06;5049599;28;20031;-74
2024/01/23 08:25:02;;;;;;;19.17;4.00;;;;;;;12.94;48.54;102550.56;5050589;28;20060;-75
2024/01/23 08:27:28;;;;;;;15.17;1.87;;;;;;;12.97;49.11;102547.97;5051222;28;20025;-74
2024/01/23 08:29:53;;;;;;;6.13;1.50;;;;;;;12.96;48.72;102556.69;5049282;28;20075;-75
2024/01/23 08:32:21;;;;;;;16.60;2.33;;;;;;;12.86;49.46;102550.50;5050591;28;20032;-75
2024/01/23 08:34:47;;;;;;;14.50;2.13;;;;;;;13.22;48.37;102558.63;5050538;28;20094;-75
2024/01/23 08:37:14;;;;;;;21.40;2.87;;;;;;;12.94;48.78;102557.53;5050243;28;20025;-75
2024/01/23 08:39:39;;;;;;;16.37;1.70;;;;;;;13.81;47.35;102558.97;5051258;28;20461;-75
2024/01/23 08:42:05;;;;;;;18.57;2.77;;;;;;;13.93;46.66;102559.00;5051002;28;20025;-75
2024/01/23 08:44:30;;;;;;;15.03;3.50;;;;;;;13.71;47.51;102564.19;5051158;28;20055;-75
2024/01/23 08:46:56;;;;;;;12.03;3.13;;;;;;;13.18;48.54;102568.22;5051346;28;20074;-74
2024/01/23 08:49:21;;;;;;;13.20;2.43;;;;;;;13.46;47.66;102572.78;5049323;28;20048;-75
2024/01/23 08:51:46;;;;;;;24.90;4.20;;;;;;;13.79;46.63;102561.56;5049619;28;20040;-75
2024/01/23 08:54:13;;;;;;;13.90;2.57;;;;;;;13.53;47.13;102574.56;5051499;28;20060;-75
2024/01/23 08:56:39;;;;;;;16.20;1.63;;;;;;;13.73;47.29;102572.94;5048760;28;20032;-75
2024/01/23 08:59:04;;;;;;;16.73;2.90;;;;;;;13.02;48.48;102572.50;5051271;28;20025;-75
2024/01/23 09:01:29;;;;;;;21.73;2.30;;;;;;;13.65;47.77;102569.38;5050830;28;20108;-74
2024/01/23 09:03:55;;;;;;;8.33;1.87;;;;;;;12.83;49.09;102562.69;5050435;28;20028;-75
2024/01/23 09:06:20;;;;;;;9.33;2.13;;;;;;;13.16;48.41;102564.72;5050046;28;20091;-75
2024/01/23 09:08:46;;;;;;;8.60;1.97;;;;;;;13.29;48.16;102570.91;5049503;28;20051;-75
2024/01/23 09:11:11;;;;;;;15.33;2.07;;;;;;;13.28;47.80;102549.91;5049474;28;20478;-75
2024/01/23 09:13:38;;;;;;;12.47;2.17;;;;;;;13.16;48.16;102563.81;5049214;28;20401;-75
2024/01/23 09:16:04;;;;;;;17.63;2.00;;;;;;;13.49;47.74;102557.03;5049776;28;20032;-74
2024/01/23 09:18:29;;;;;;;14.23;2.03;;;;;;;13.97;46.67;102555.53;5048677;28;20403;-75
2024/01/23 09:20:56;;;;;;;21.53;2.83;;;;;;;12.87;49.44;102562.75;5051194;28;20108;-75
2024/01/23 09:23:22;;;;;;;19.67;3.13;;;;;;;12.65;50.27;102572.19;5049895;28;20017;-75
2024/01/23 09:25:47;;;;;;;11.33;1.60;;;;;;;13.68;47.73;102558.91;5048502;28;20035;-75
2024/01/23 09:28:13;;;;;;;13.00;2.27;;;;;;;14.04;46.93;102557.28;5051169;28;20017;-75
2024/01/23 09:30:39;;;;;;;14.87;1.63;;;;;;;13.71;47.58;102574.69;5049027;28;20029;-75
2024/01/23 09:33:05;;;;;;;16.17;2.30;;;;;;;14.17;47.12;102562.59;5050265;28;20120;-75
2024/01/23 09:35:30;;;;;;;24.87;2.37;;;;;;;13.79;47.66;102556.31;5050513;28;20032;-75
2024/01/23 09:37:56;;;;;;;11.80;3.10;;;;;;;14.20;46.99;102555.56;5050003;28;20465;-75
2024/01/23 09:40:22;;;;;;;15.17;2.13;;;;;;;14.18;46.76;102564.34;5050986;28;20108;-75
2024/01/23 09:42:47;;;;;;;9.30;1.87;;;;;;;14.59;46.54;102563.53;5050435;28;20056;-75
2024/01/23 09:45:17;;;;;;;11.17;2.03;;;;;;;15.04;45.77;102561.81;5045482;28;20127;-75
2024/01/23 09:47:46;;;;;;;14.40;1.93;;;;;;;15.14;45.62;102553.88;5033271;28;20018;-75
2024/01/23 09:50:15;;;;;;;10.80;2.07;;;;;;;15.31;44.67;102551.22;5053427;28;20041;-75
2024/01/23 09:52:43;;;;;;;14.60;2.07;;;;;;;14.04;47.18;102546.78;5052542;28;20656;-75
2024/01/23 09:55:09;;;;;;;17.07;2.53;;;;;;;14.95;45.83;102553.91;5053501;28;20556;-75
2024/01/23 09:57:35;;;;;;;13.90;2.17;;;;;;;14.87;46.12;102563.56;5053014;28;20027;-75
2024/01/23 10:00:00;;;;;;;14.43;1.77;;;;;;;15.06;45.74;102565.28;5053836;28;20033;-75
2024/01/23 10:02:27;;;;;;;20.33;3.27;;;;;;;15.05;45.33;102560.91;5054836;28;20495;-75
2024/01/23 10:04:54;;;;;;;12.47;1.57;;;;;;;14.99;45.59;102571.44;5052840;28;20033;-75
2024/01/23 10:07:19;;;;;;;20.83;2.73;;;;;;;14.41;46.09;102570.53;5052558;28;20021;-75
2024/01/23 10:09:48;;;;;;;23.80;2.17;;;;;;;14.78;45.75;102571.44;5054237;28;20035;-75
2024/01/23 10:12:14;;;;;;;9.67;1.73;;;;;;;15.56;44.75;102563.41;5053271;28;20055;-75
2024/01/23 10:14:43;;;;;;;13.10;1.87;;;;;;;16.74;42.44;102568.91;5053246;28;20032;-75
2024/01/23 10:17:09;;;;;;;9.27;1.53;;;;;;;14.79;45.51;102570.59;5054317;28;20154;-75
2024/01/23 10:19:35;;;;;;;7.63;1.40;;;;;;;15.90;44.18;102578.28;5052438;28;20032;-75
2024/01/23 10:22:00;;;;;;;24.67;3.03;;;;;;;15.35;45.02;102580.16;5052382;28;20032;-75
2024/01/23 10:24:29;;;;;;;21.23;2.07;;;;;;;15.84;44.11;102573.00;5054270;28;20017;-75
2024/01/23 10:26:54;;;;;;;10.50;2.50;;;;;;;15.93;43.82;102563.28;5052878;28;20036;-75
2024/01/23 10:29:20;;;;;;;13.73;2.07;;;;;;;15.61;44.28;102566.06;5053497;28;20025;-75
2024/01/23 10:31:46;;;;;;;15.77;2.13;;;;;;;16.63;42.72;102562.84;5053688;28;20017;-75
2024/01/23 10:34:14;;;;;;;14.70;2.23;;;;;;;15.57;44.65;102570.44;5053380;28;20025;-75
2024/01/23 10:36:42;;;;;;;17.83;1.67;;;;;;;15.56;45.05;102560.78;5052140;28;20135;-75
2024/01/23 10:39:08;;;;;;;14.90;2.00;;;;;;;16.25;43.16;102564.00;5054249;28;20111;-75
2024/01/23 10:41:34;;;;;;;12.67;1.63;;;;;;;16.04;44.17;102552.69;5051562;28;20033;-75
2024/01/23 10:44:01;;;;;;;13.90;2.03;;;;;;;16.69;43.49;102549.63;5052526;28;20021;-75
2024/01/23 10:46:30;;;;;;;16.30;2.27;;;;;;;16.32;43.44;102554.28;5053740;28;20037;-75
2024/01/23 10:48:56;;;;;;;7.00;2.13;;;;;;;15.71;44.82;102551.94;5051274;28;20378;-75
2024/01/23 10:51:23;;;;;;;20.70;2.20;;;;;;;15.71;44.35;102536.13;5052689;28;20080;-75
2024/01/23 10:53:59;;;;;;;11.30;2.03;;;;;;;15.56;44.91;102541.47;5051622;28;20344;-75
2024/01/23 10:56:31;;;;;;;7.47;1.30;;;;;;;15.50;45.50;102525.69;5052891;28;20033;-75
2024/01/23 10:59:01;;;;;;;10.85;1.63;;;;;;;16.45;43.30;102519.88;5053331;28;20029;-75
2024/01/23 11:01:33;;;;;;;7.43;1.50;;;;;;;15.98;44.26;102521.09;5053735;28;20025;-75
2024/01/23 11:04:02;;;;;;;;;;;;;;;15.84;44.21;102512.38;5052121;28;20040;-75
2024/01/23 11:06:33;;;;;;;6.17;1.07;;;;;;;14.91;46.65;102515.28;5048740;28;20434;-75
2024/01/23 11:09:08;;;;;;;17.60;1.80;;;;;;;15.82;44.84;102493.91;5033439;28;20029;-75
2024/01/23 11:11:34;;;;;;;19.93;1.90;;;;;;;15.78;44.51;102516.78;5032314;28;20022;-75
2024/01/23 11:14:08;;;;;;;13.50;1.60;;;;;;;15.41;45.34;102514.31;5031993;28;20055;-75